Capt. Billy Slatten — WDC3380 — position and weather

sailwx.info

Track history (hours):
 
Tides and Currents Weather Stations Pressure Air Temp Water Temp Dewpoint Dewpoint Depression Visibility Wind Speed Wind Dir Waves Ship Positions

Capt. Billy Slatten

More information available from US FCC via Universal Licensing System and Coast Guard Vessel Documentation Center.

Last reported at 2014-Aug-31 16:33 UTC. Time now 2014-Sep-02 21:45 UTC.
Position N 30°03' W 090°34'.

Length 30 m; draft 3.5 m.

Type: Tug. MMSI: 367007030.

Date/timePositionNaut miles runAvg speedWind from/ knotsBaromVisibWave heightAir tempDewpointWater temp
2014-Aug-31 16:33N 30°03' W 090°34'0 0.2
2014-Aug-31 15:33N 30°03' W 090°33'0 0.0
2014-Aug-31 14:33N 30°03' W 090°33'0 0.0
2014-Aug-31 13:33N 30°03' W 090°33'0 0.4
2014-Aug-31 12:33N 30°03' W 090°34'1 1.0
2014-Aug-31 11:33N 30°03' W 090°35'0 0.0
2014-Aug-31 10:33N 30°03' W 090°35'0 0.0
2014-Aug-31 09:33N 30°03' W 090°35'0 0.0
2014-Aug-31 08:33N 30°03' W 090°35'0 0.0
2014-Aug-31 07:33N 30°03' W 090°35'0 0.0
2014-Aug-31 06:33N 30°03' W 090°35'0 0.0
2014-Aug-31 05:33N 30°03' W 090°35'0 0.0
2014-Aug-31 04:33N 30°03' W 090°35'0 0.0
2014-Aug-31 03:33N 30°03' W 090°35'0 0.0
2014-Aug-31 02:33N 30°03' W 090°35'0 0.0
2014-Aug-31 01:33N 30°03' W 090°35'0 0.0
2014-Aug-31 00:33N 30°03' W 090°35'0 0.0
2014-Aug-30 23:33N 30°03' W 090°35'0 0.3
2014-Aug-30 22:33N 30°03' W 090°35'0 0.1
2014-Aug-30 21:33N 30°03' W 090°35'6 6.2
2014-Aug-30 20:33N 30°02' W 090°42'2 1.6
2014-Aug-30 19:33N 30°01' W 090°44'0 0.0
2014-Aug-30 18:33N 30°01' W 090°44'0 0.0
2014-Aug-30 17:31N 30°01' W 090°44'0 0.0
2014-Aug-30 16:33N 30°01' W 090°44'0 0.0
2014-Aug-30 14:28N 30°01' W 090°44'  
2014-Aug-25 22:24N 30°02' W 090°37'2 2.8
2014-Aug-25 21:33N 30°03' W 090°34'0 0.0
2014-Aug-25 20:33N 30°03' W 090°34'12 1.4
2014-Aug-25 12:30N 29°57' W 090°23'0 0.0
2014-Aug-25 09:23N 29°57' W 090°23'0 0.0
2014-Aug-25 08:32N 29°57' W 090°23'0 0.0
2014-Aug-25 07:33N 29°57' W 090°23'0 0.0
2014-Aug-25 06:31N 29°57' W 090°23'0 0.3
2014-Aug-25 05:33N 29°57' W 090°23'1 0.7
2014-Aug-25 04:32N 29°56' W 090°22'1 1.1
2014-Aug-25 03:33N 29°57' W 090°23'0 0.0
2014-Aug-25 01:32N 29°57' W 090°23'0 0.0
2014-Aug-25 00:33N 29°57' W 090°23'0 0.0
2014-Aug-24 23:33N 29°57' W 090°23'0 0.0
2014-Aug-24 22:32N 29°57' W 090°23'0 0.0
2014-Aug-24 21:30N 29°57' W 090°23'1 1.1
2014-Aug-24 20:33N 29°56' W 090°22'1 1.1
2014-Aug-24 19:33N 29°57' W 090°23'0 0.0
2014-Aug-24 18:32N 29°57' W 090°23'0 0.0
2014-Aug-24 17:33N 29°57' W 090°23'0 0.0
2014-Aug-24 16:32N 29°57' W 090°23'0 0.0
2014-Aug-24 15:10N 29°57' W 090°23'0 0.0
2014-Aug-24 14:33N 29°57' W 090°23'0 0.0
2014-Aug-24 12:08N 29°57' W 090°23'0 0.6
2014-Aug-24 11:33N 29°57' W 090°23'0 0.2
2014-Aug-24 09:25N 29°57' W 090°23'0 0.0
2014-Aug-24 08:27N 29°57' W 090°23'0 0.0
2014-Aug-24 07:12N 29°57' W 090°23'0 0.0
2014-Aug-24 06:33N 29°57' W 090°23'0 0.0
2014-Aug-24 05:22N 29°57' W 090°23'0 0.0
2014-Aug-24 04:29N 29°57' W 090°23'0 0.0
2014-Aug-24 02:18N 29°57' W 090°23'0 0.0
2014-Aug-24 01:29N 29°57' W 090°23'0 0.0
2014-Aug-24 00:32N 29°57' W 090°23'0 0.0
2014-Aug-23 22:33N 29°57' W 090°23'6 6.1
2014-Aug-23 21:33N 30°01' W 090°28'8 8.4
2014-Aug-23 20:33N 30°02' W 090°38'8 0.5
2014-Aug-23 03:33N 30°01' W 090°28'6 5.8
2014-Aug-23 02:33N 30°03' W 090°35'3 3.0
2014-Aug-23 01:33N 30°03' W 090°31'1 0.8
2014-Aug-23 00:33N 30°03' W 090°32'0 0.1
2014-Aug-22 23:33N 30°03' W 090°32'0 0.0
2014-Aug-22 22:33N 30°03' W 090°32'3 3.2
2014-Aug-22 21:33N 30°03' W 090°36'1 1.0
2014-Aug-22 20:33N 30°03' W 090°35'0 0.2
2014-Aug-22 19:33N 30°03' W 090°35'0 0.0
2014-Aug-22 18:33N 30°03' W 090°35'0 0.0
2014-Aug-22 17:33N 30°03' W 090°35'0 0.0
2014-Aug-22 16:33N 30°03' W 090°35'1 1.3
2014-Aug-22 15:33N 30°03' W 090°33'0 0.0
2014-Aug-22 14:33N 30°03' W 090°33'2 2.0
2014-Aug-22 13:29N 30°03' W 090°36'0 0.1
2014-Aug-22 12:33N 30°03' W 090°36'0 0.2
2014-Aug-22 11:33N 30°03' W 090°36'1 0.6
2014-Aug-22 10:33N 30°03' W 090°35'0 0.3
2014-Aug-22 09:33N 30°03' W 090°35'0 0.3
2014-Aug-22 08:33N 30°03' W 090°35'1 1.3
2014-Aug-22 07:33N 30°03' W 090°33'0 0.0
2014-Aug-22 06:33N 30°03' W 090°33'0 0.0
2014-Aug-22 05:33N 30°03' W 090°33'0 0.0
2014-Aug-22 04:33N 30°03' W 090°33'0 0.0
2014-Aug-22 03:33N 30°03' W 090°33'0 0.0
2014-Aug-22 02:33N 30°03' W 090°33'0 0.0
2014-Aug-22 01:33N 30°03' W 090°33'0 0.0
2014-Aug-22 00:33N 30°03' W 090°33'0 0.0
2014-Aug-21 23:33N 30°03' W 090°33'0 0.0
2014-Aug-21 22:33N 30°03' W 090°33'0 0.0
2014-Aug-21 21:33N 30°03' W 090°33'0 0.0
2014-Aug-21 20:33N 30°03' W 090°33'0 0.0
2014-Aug-21 19:33N 30°03' W 090°33'0 0.0
2014-Aug-21 18:33N 30°03' W 090°33'0 0.0
2014-Aug-21 17:33N 30°03' W 090°33'0 0.0
2014-Aug-21 16:33N 30°03' W 090°33'  
Track history (hours):
 
Tides and Currents Weather Stations Pressure Air Temp Water Temp Dewpoint Dewpoint Depression Visibility Wind Speed Wind Dir Waves Ship Positions

Capt. Billy Slatten

More information available from US FCC via Universal Licensing System and Coast Guard Vessel Documentation Center.

Last reported at 2014-Aug-31 16:33 UTC. Time now 2014-Sep-02 21:45 UTC.
Position N 30°03' W 090°34'.

Length 30 m; draft 3.5 m.

Type: Tug. MMSI: 367007030.

Date/timePositionNaut miles runAvg speedWind from/ knotsBaromVisibWave heightAir tempDewpointWater temp
2014-Aug-31 16:33N 30°03' W 090°34'0 0.2
2014-Aug-31 15:33N 30°03' W 090°33'0 0.0
2014-Aug-31 14:33N 30°03' W 090°33'0 0.0
2014-Aug-31 13:33N 30°03' W 090°33'0 0.4
2014-Aug-31 12:33N 30°03' W 090°34'1 1.0
2014-Aug-31 11:33N 30°03' W 090°35'0 0.0
2014-Aug-31 10:33N 30°03' W 090°35'0 0.0
2014-Aug-31 09:33N 30°03' W 090°35'0 0.0
2014-Aug-31 08:33N 30°03' W 090°35'0 0.0
2014-Aug-31 07:33N 30°03' W 090°35'0 0.0
2014-Aug-31 06:33N 30°03' W 090°35'0 0.0
2014-Aug-31 05:33N 30°03' W 090°35'0 0.0
2014-Aug-31 04:33N 30°03' W 090°35'0 0.0
2014-Aug-31 03:33N 30°03' W 090°35'0 0.0
2014-Aug-31 02:33N 30°03' W 090°35'0 0.0
2014-Aug-31 01:33N 30°03' W 090°35'0 0.0
2014-Aug-31 00:33N 30°03' W 090°35'0 0.0
2014-Aug-30 23:33N 30°03' W 090°35'0 0.3
2014-Aug-30 22:33N 30°03' W 090°35'0 0.1
2014-Aug-30 21:33N 30°03' W 090°35'6 6.2
2014-Aug-30 20:33N 30°02' W 090°42'2 1.6
2014-Aug-30 19:33N 30°01' W 090°44'0 0.0
2014-Aug-30 18:33N 30°01' W 090°44'0 0.0
2014-Aug-30 17:31N 30°01' W 090°44'0 0.0
2014-Aug-30 16:33N 30°01' W 090°44'0 0.0
2014-Aug-30 14:28N 30°01' W 090°44'  
2014-Aug-25 22:24N 30°02' W 090°37'2 2.8
2014-Aug-25 21:33N 30°03' W 090°34'0 0.0
2014-Aug-25 20:33N 30°03' W 090°34'12 1.4
2014-Aug-25 12:30N 29°57' W 090°23'0 0.0
2014-Aug-25 09:23N 29°57' W 090°23'0 0.0
2014-Aug-25 08:32N 29°57' W 090°23'0 0.0
2014-Aug-25 07:33N 29°57' W 090°23'0 0.0
2014-Aug-25 06:31N 29°57' W 090°23'0 0.3
2014-Aug-25 05:33N 29°57' W 090°23'1 0.7
2014-Aug-25 04:32N 29°56' W 090°22'1 1.1
2014-Aug-25 03:33N 29°57' W 090°23'0 0.0
2014-Aug-25 01:32N 29°57' W 090°23'0 0.0
2014-Aug-25 00:33N 29°57' W 090°23'0 0.0
2014-Aug-24 23:33N 29°57' W 090°23'0 0.0
2014-Aug-24 22:32N 29°57' W 090°23'0 0.0
2014-Aug-24 21:30N 29°57' W 090°23'1 1.1
2014-Aug-24 20:33N 29°56' W 090°22'1 1.1
2014-Aug-24 19:33N 29°57' W 090°23'0 0.0
2014-Aug-24 18:32N 29°57' W 090°23'0 0.0
2014-Aug-24 17:33N 29°57' W 090°23'0 0.0
2014-Aug-24 16:32N 29°57' W 090°23'0 0.0
2014-Aug-24 15:10N 29°57' W 090°23'0 0.0
2014-Aug-24 14:33N 29°57' W 090°23'0 0.0
2014-Aug-24 12:08N 29°57' W 090°23'0 0.6
2014-Aug-24 11:33N 29°57' W 090°23'0 0.2
2014-Aug-24 09:25N 29°57' W 090°23'0 0.0
2014-Aug-24 08:27N 29°57' W 090°23'0 0.0
2014-Aug-24 07:12N 29°57' W 090°23'0 0.0
2014-Aug-24 06:33N 29°57' W 090°23'0 0.0
2014-Aug-24 05:22N 29°57' W 090°23'0 0.0
2014-Aug-24 04:29N 29°57' W 090°23'0 0.0
2014-Aug-24 02:18N 29°57' W 090°23'0 0.0
2014-Aug-24 01:29N 29°57' W 090°23'0 0.0
2014-Aug-24 00:32N 29°57' W 090°23'0 0.0
2014-Aug-23 22:33N 29°57' W 090°23'6 6.1
2014-Aug-23 21:33N 30°01' W 090°28'8 8.4
2014-Aug-23 20:33N 30°02' W 090°38'8 0.5
2014-Aug-23 03:33N 30°01' W 090°28'6 5.8
2014-Aug-23 02:33N 30°03' W 090°35'3 3.0
2014-Aug-23 01:33N 30°03' W 090°31'1 0.8
2014-Aug-23 00:33N 30°03' W 090°32'0 0.1
2014-Aug-22 23:33N 30°03' W 090°32'0 0.0
2014-Aug-22 22:33N 30°03' W 090°32'3 3.2
2014-Aug-22 21:33N 30°03' W 090°36'1 1.0
2014-Aug-22 20:33N 30°03' W 090°35'0 0.2
2014-Aug-22 19:33N 30°03' W 090°35'0 0.0
2014-Aug-22 18:33N 30°03' W 090°35'0 0.0
2014-Aug-22 17:33N 30°03' W 090°35'0 0.0
2014-Aug-22 16:33N 30°03' W 090°35'1 1.3
2014-Aug-22 15:33N 30°03' W 090°33'0 0.0
2014-Aug-22 14:33N 30°03' W 090°33'2 2.0
2014-Aug-22 13:29N 30°03' W 090°36'0 0.1
2014-Aug-22 12:33N 30°03' W 090°36'0 0.2
2014-Aug-22 11:33N 30°03' W 090°36'1 0.6
2014-Aug-22 10:33N 30°03' W 090°35'0 0.3
2014-Aug-22 09:33N 30°03' W 090°35'0 0.3
2014-Aug-22 08:33N 30°03' W 090°35'1 1.3
2014-Aug-22 07:33N 30°03' W 090°33'0 0.0
2014-Aug-22 06:33N 30°03' W 090°33'0 0.0
2014-Aug-22 05:33N 30°03' W 090°33'0 0.0
2014-Aug-22 04:33N 30°03' W 090°33'0 0.0
2014-Aug-22 03:33N 30°03' W 090°33'0 0.0
2014-Aug-22 02:33N 30°03' W 090°33'0 0.0
2014-Aug-22 01:33N 30°03' W 090°33'0 0.0
2014-Aug-22 00:33N 30°03' W 090°33'0 0.0
2014-Aug-21 23:33N 30°03' W 090°33'0 0.0
2014-Aug-21 22:33N 30°03' W 090°33'0 0.0
2014-Aug-21 21:33N 30°03' W 090°33'0 0.0
2014-Aug-21 20:33N 30°03' W 090°33'0 0.0
2014-Aug-21 19:33N 30°03' W 090°33'0 0.0
2014-Aug-21 18:33N 30°03' W 090°33'0 0.0
2014-Aug-21 17:33N 30°03' W 090°33'0 0.0
2014-Aug-21 16:33N 30°03' W 090°33'  

Dump ship's entire track history